Roberts Field
KRDM : now visible

Aeroporto :











RITROVATECI SU...

 
LOGIN :

Iscrizione | Disclaimer

   EN    FR    IT 

 









Sommario :    VFR   VFR Marginale   IFR   IFR Intensivo   IFR Molto Intensivo
Visibilità : 
Base nubi : 
>= 8 km
>= 3000ft
5 / 8 km
1000 / 3000 ft
1500m / 5 km
500 / 1000 ft
800 / 1500m
200 / 500 ft
< 800m
< 200 ft
Simboli :   Temporali  Nebbia  Neve Forte  Precipitazioni Forti  Vento > 20 kt






- Altitudine del aeroporto : 3080 ft
- Codice IATA : RDM


KRDM - Roberts Field

ULTIMO METAR :
  • 200956Z AUTO 00000KT 10SM CLR M07/M11 A3027 RMK AO2 SLP269 T10671111

METARs OBSOLETI :
  • 200856Z AUTO 00000KT 10SM CLR M06/M11 A3028 RMK AO2 SLP272 T10611106 58001
  • 200756Z AUTO 12005KT 10SM CLR M03/M09 A3029 RMK AO2 SLP274 T10331094 401001128

TAF KRDM
Valido dal 20 a 06 ore il 21 a 06 ore UTC


200529Z 2006/2106 17007KT P6SM SKC
FM202200 15007KT P6SM FEW100
FM210500 17007KT P6SM SCT100



MetMap, La meteo Aeronautica in un colpo d'occhio ! - Copyright ORBIFLY Dicembre 2007 - Disclaimer

ORBIFLY MET'MAP TEAM :

Programmazione e sviluppo : Alexandra Zaïnal
Concezione : Baudouin d'Aumeries
Aiuto per la programmazione : Marc-Olivier Méhu
Supporto tecnico e logistico : Manuel Goepfert
Aiuto per la traduzione : Arnaldo La Scala

Contatto : metmap@orbifly.com




FONTI E CREDITI :

   NOAA       Earth
Advisory